sensor_id;sensor_type;location;lat;lon;timestamp;P1;durP1;ratioP1;P2;durP2;ratioP2
17987;SDS011;9119;50.932;5.342;2023-06-19T00:01:44;8.10;;;4.47;;
17987;SDS011;9119;50.932;5.342;2023-06-19T00:04:09;8.23;;;4.10;;
17987;SDS011;9119;50.932;5.342;2023-06-19T00:06:35;6.60;;;4.13;;
17987;SDS011;9119;50.932;5.342;2023-06-19T00:09:01;5.43;;;3.87;;
17987;SDS011;9119;50.932;5.342;2023-06-19T00:11:27;6.73;;;4.60;;
17987;SDS011;9119;50.932;5.342;2023-06-19T00:13:53;6.27;;;4.30;;
17987;SDS011;9119;50.932;5.342;2023-06-19T00:16:18;5.67;;;3.80;;
17987;SDS011;9119;50.932;5.342;2023-06-19T00:18:45;6.60;;;4.30;;
17987;SDS011;9119;50.932;5.342;2023-06-19T00:21:11;6.93;;;4.10;;
17987;SDS011;9119;50.932;5.342;2023-06-19T00:23:37;5.47;;;3.87;;
17987;SDS011;9119;50.932;5.342;2023-06-19T00:26:02;7.33;;;4.27;;
17987;SDS011;9119;50.932;5.342;2023-06-19T00:28:31;6.63;;;4.00;;
17987;SDS011;9119;50.932;5.342;2023-06-19T00:30:57;7.33;;;4.77;;
17987;SDS011;9119;50.932;5.342;2023-06-19T00:33:23;5.53;;;3.50;;
17987;SDS011;9119;50.932;5.342;2023-06-19T00:35:52;6.80;;;4.57;;
17987;SDS011;9119;50.932;5.342;2023-06-19T00:38:19;5.77;;;3.90;;
17987;SDS011;9119;50.932;5.342;2023-06-19T00:40:45;7.03;;;4.00;;
17987;SDS011;9119;50.932;5.342;2023-06-19T00:43:10;5.33;;;3.93;;
17987;SDS011;9119;50.932;5.342;2023-06-19T00:45:36;5.93;;;3.83;;
17987;SDS011;9119;50.932;5.342;2023-06-19T00:48:02;5.60;;;3.97;;
17987;SDS011;9119;50.932;5.342;2023-06-19T00:50:29;7.17;;;4.00;;
17987;SDS011;9119;50.932;5.342;2023-06-19T00:52:56;5.70;;;4.20;;
17987;SDS011;9119;50.932;5.342;2023-06-19T00:55:23;6.73;;;3.90;;
17987;SDS011;9119;50.932;5.342;2023-06-19T00:57:53;9.60;;;3.93;;
17987;SDS011;9119;50.932;5.342;2023-06-19T01:00:19;6.83;;;3.83;;
17987;SDS011;9119;50.932;5.342;2023-06-19T01:02:46;7.43;;;3.90;;
17987;SDS011;9119;50.932;5.342;2023-06-19T01:05:12;6.43;;;4.13;;
17987;SDS011;9119;50.932;5.342;2023-06-19T01:07:52;6.03;;;4.00;;
17987;SDS011;9119;50.932;5.342;2023-06-19T01:10:24;8.00;;;4.30;;
17987;SDS011;9119;50.932;5.342;2023-06-19T01:12:56;5.53;;;3.73;;
17987;SDS011;9119;50.932;5.342;2023-06-19T01:15:26;5.83;;;3.93;;
17987;SDS011;9119;50.932;5.342;2023-06-19T01:17:53;7.63;;;4.30;;
17987;SDS011;9119;50.932;5.342;2023-06-19T01:20:21;6.70;;;4.13;;
17987;SDS011;9119;50.932;5.342;2023-06-19T01:22:47;5.87;;;3.90;;
17987;SDS011;9119;50.932;5.342;2023-06-19T01:25:12;7.10;;;3.90;;
17987;SDS011;9119;50.932;5.342;2023-06-19T01:27:39;7.27;;;4.23;;
17987;SDS011;9119;50.932;5.342;2023-06-19T01:30:07;6.07;;;4.30;;
17987;SDS011;9119;50.932;5.342;2023-06-19T01:35:26;7.03;;;3.70;;
17987;SDS011;9119;50.932;5.342;2023-06-19T01:37:53;6.50;;;3.80;;
17987;SDS011;9119;50.932;5.342;2023-06-19T01:40:20;5.37;;;3.73;;
17987;SDS011;9119;50.932;5.342;2023-06-19T01:42:49;7.43;;;3.90;;
17987;SDS011;9119;50.932;5.342;2023-06-19T01:45:17;7.33;;;4.33;;
17987;SDS011;9119;50.932;5.342;2023-06-19T01:47:43;6.03;;;4.23;;
17987;SDS011;9119;50.932;5.342;2023-06-19T01:50:09;7.63;;;4.90;;
17987;SDS011;9119;50.932;5.342;2023-06-19T01:52:36;6.67;;;4.20;;
17987;SDS011;9119;50.932;5.342;2023-06-19T01:55:03;8.60;;;4.00;;
17987;SDS011;9119;50.932;5.342;2023-06-19T01:57:28;8.07;;;3.70;;
17987;SDS011;9119;50.932;5.342;2023-06-19T01:59:54;10.90;;;4.13;;
17987;SDS011;9119;50.932;5.342;2023-06-19T02:02:20;8.87;;;4.20;;
17987;SDS011;9119;50.932;5.342;2023-06-19T02:04:46;5.77;;;3.77;;
17987;SDS011;9119;50.932;5.342;2023-06-19T02:07:11;8.00;;;4.20;;
17987;SDS011;9119;50.932;5.342;2023-06-19T02:09:37;5.17;;;3.27;;
17987;SDS011;9119;50.932;5.342;2023-06-19T02:12:04;5.90;;;3.60;;
17987;SDS011;9119;50.932;5.342;2023-06-19T02:14:30;6.17;;;3.53;;
17987;SDS011;9119;50.932;5.342;2023-06-19T02:16:56;5.03;;;3.20;;
17987;SDS011;9119;50.932;5.342;2023-06-19T02:19:21;7.87;;;3.53;;
17987;SDS011;9119;50.932;5.342;2023-06-19T02:21:47;7.63;;;3.77;;
17987;SDS011;9119;50.932;5.342;2023-06-19T02:24:13;8.30;;;4.10;;
17987;SDS011;9119;50.932;5.342;2023-06-19T02:26:38;5.60;;;3.40;;
17987;SDS011;9119;50.932;5.342;2023-06-19T02:29:04;6.70;;;4.10;;
17987;SDS011;9119;50.932;5.342;2023-06-19T02:31:30;7.83;;;3.47;;
17987;SDS011;9119;50.932;5.342;2023-06-19T02:33:56;6.80;;;3.80;;
17987;SDS011;9119;50.932;5.342;2023-06-19T02:36:21;6.50;;;3.90;;
17987;SDS011;9119;50.932;5.342;2023-06-19T02:38:47;6.00;;;3.43;;
17987;SDS011;9119;50.932;5.342;2023-06-19T02:41:14;7.30;;;3.77;;
17987;SDS011;9119;50.932;5.342;2023-06-19T02:43:43;5.93;;;3.57;;
17987;SDS011;9119;50.932;5.342;2023-06-19T02:46:11;6.27;;;3.70;;
17987;SDS011;9119;50.932;5.342;2023-06-19T02:48:37;6.10;;;3.43;;
17987;SDS011;9119;50.932;5.342;2023-06-19T02:51:03;10.33;;;4.23;;
17987;SDS011;9119;50.932;5.342;2023-06-19T02:53:28;5.53;;;3.23;;
17987;SDS011;9119;50.932;5.342;2023-06-19T02:55:54;8.77;;;4.07;;
17987;SDS011;9119;50.932;5.342;2023-06-19T02:58:20;6.70;;;3.33;;
17987;SDS011;9119;50.932;5.342;2023-06-19T03:00:45;8.03;;;3.37;;
17987;SDS011;9119;50.932;5.342;2023-06-19T03:03:11;6.07;;;3.50;;
17987;SDS011;9119;50.932;5.342;2023-06-19T03:05:38;7.20;;;3.23;;
17987;SDS011;9119;50.932;5.342;2023-06-19T03:08:03;8.03;;;3.90;;
17987;SDS011;9119;50.932;5.342;2023-06-19T03:10:29;10.00;;;3.90;;
17987;SDS011;9119;50.932;5.342;2023-06-19T03:12:55;6.93;;;3.70;;
17987;SDS011;9119;50.932;5.342;2023-06-19T03:15:23;8.40;;;3.57;;
17987;SDS011;9119;50.932;5.342;2023-06-19T03:17:49;6.00;;;3.37;;
17987;SDS011;9119;50.932;5.342;2023-06-19T03:20:15;7.60;;;3.73;;
17987;SDS011;9119;50.932;5.342;2023-06-19T03:22:40;7.60;;;4.07;;
17987;SDS011;9119;50.932;5.342;2023-06-19T03:25:07;4.60;;;3.20;;
17987;SDS011;9119;50.932;5.342;2023-06-19T03:27:33;6.73;;;3.83;;
17987;SDS011;9119;50.932;5.342;2023-06-19T03:30:00;6.30;;;3.53;;
17987;SDS011;9119;50.932;5.342;2023-06-19T03:32:25;7.43;;;3.47;;
17987;SDS011;9119;50.932;5.342;2023-06-19T03:34:51;8.07;;;3.70;;
17987;SDS011;9119;50.932;5.342;2023-06-19T03:37:17;6.50;;;3.73;;
17987;SDS011;9119;50.932;5.342;2023-06-19T03:39:42;5.73;;;3.40;;
17987;SDS011;9119;50.932;5.342;2023-06-19T03:42:08;7.33;;;4.17;;
17987;SDS011;9119;50.932;5.342;2023-06-19T03:44:34;6.20;;;3.47;;
17987;SDS011;9119;50.932;5.342;2023-06-19T03:46:59;10.67;;;4.23;;
17987;SDS011;9119;50.932;5.342;2023-06-19T03:49:25;6.80;;;4.00;;
17987;SDS011;9119;50.932;5.342;2023-06-19T03:51:51;9.47;;;3.77;;
17987;SDS011;9119;50.932;5.342;2023-06-19T03:54:19;5.13;;;3.40;;
17987;SDS011;9119;50.932;5.342;2023-06-19T03:56:45;8.03;;;3.40;;
17987;SDS011;9119;50.932;5.342;2023-06-19T03:59:11;6.03;;;3.80;;
17987;SDS011;9119;50.932;5.342;2023-06-19T04:01:36;9.27;;;3.70;;
17987;SDS011;9119;50.932;5.342;2023-06-19T04:04:02;6.53;;;3.70;;
17987;SDS011;9119;50.932;5.342;2023-06-19T04:06:28;5.20;;;3.77;;
17987;SDS011;9119;50.932;5.342;2023-06-19T04:08:53;8.03;;;3.83;;
17987;SDS011;9119;50.932;5.342;2023-06-19T04:11:19;7.23;;;4.27;;
17987;SDS011;9119;50.932;5.342;2023-06-19T04:13:45;7.43;;;4.23;;
17987;SDS011;9119;50.932;5.342;2023-06-19T04:16:12;7.03;;;4.03;;
17987;SDS011;9119;50.932;5.342;2023-06-19T04:18:37;7.37;;;4.40;;
17987;SDS011;9119;50.932;5.342;2023-06-19T04:21:03;8.50;;;4.40;;
17987;SDS011;9119;50.932;5.342;2023-06-19T04:23:29;8.10;;;4.17;;
17987;SDS011;9119;50.932;5.342;2023-06-19T04:25:54;7.80;;;4.03;;
17987;SDS011;9119;50.932;5.342;2023-06-19T04:28:20;9.23;;;4.60;;
17987;SDS011;9119;50.932;5.342;2023-06-19T04:30:46;9.77;;;4.50;;
17987;SDS011;9119;50.932;5.342;2023-06-19T04:33:12;7.90;;;4.70;;
17987;SDS011;9119;50.932;5.342;2023-06-19T04:35:37;10.27;;;5.57;;
17987;SDS011;9119;50.932;5.342;2023-06-19T04:38:08;10.13;;;5.50;;
17987;SDS011;9119;50.932;5.342;2023-06-19T04:40:34;8.27;;;5.43;;
17987;SDS011;9119;50.932;5.342;2023-06-19T04:43:03;10.33;;;6.03;;
17987;SDS011;9119;50.932;5.342;2023-06-19T04:45:30;11.70;;;5.60;;
17987;SDS011;9119;50.932;5.342;2023-06-19T04:47:56;8.47;;;5.80;;
17987;SDS011;9119;50.932;5.342;2023-06-19T04:50:22;12.57;;;6.70;;
17987;SDS011;9119;50.932;5.342;2023-06-19T04:52:47;12.50;;;5.37;;
17987;SDS011;9119;50.932;5.342;2023-06-19T04:55:15;11.57;;;5.63;;
17987;SDS011;9119;50.932;5.342;2023-06-19T04:57:41;8.87;;;6.27;;
17987;SDS011;9119;50.932;5.342;2023-06-19T05:00:07;23.77;;;7.23;;
17987;SDS011;9119;50.932;5.342;2023-06-19T05:02:35;10.83;;;5.83;;
17987;SDS011;9119;50.932;5.342;2023-06-19T05:05:00;10.20;;;5.40;;
17987;SDS011;9119;50.932;5.342;2023-06-19T05:07:31;11.97;;;6.17;;
17987;SDS011;9119;50.932;5.342;2023-06-19T05:09:57;11.83;;;6.67;;
17987;SDS011;9119;50.932;5.342;2023-06-19T05:12:23;10.70;;;5.77;;
17987;SDS011;9119;50.932;5.342;2023-06-19T05:14:49;8.43;;;5.50;;
17987;SDS011;9119;50.932;5.342;2023-06-19T05:17:15;10.90;;;5.97;;
17987;SDS011;9119;50.932;5.342;2023-06-19T05:19:41;7.47;;;5.70;;
17987;SDS011;9119;50.932;5.342;2023-06-19T05:22:06;10.17;;;5.60;;
17987;SDS011;9119;50.932;5.342;2023-06-19T05:24:32;14.40;;;6.20;;
17987;SDS011;9119;50.932;5.342;2023-06-19T05:26:58;10.87;;;6.27;;
17987;SDS011;9119;50.932;5.342;2023-06-19T05:29:25;11.50;;;6.73;;
17987;SDS011;9119;50.932;5.342;2023-06-19T05:31:50;10.77;;;7.07;;
17987;SDS011;9119;50.932;5.342;2023-06-19T05:34:16;22.10;;;6.47;;
17987;SDS011;9119;50.932;5.342;2023-06-19T05:36:42;11.00;;;6.70;;
17987;SDS011;9119;50.932;5.342;2023-06-19T05:39:10;11.03;;;7.00;;
17987;SDS011;9119;50.932;5.342;2023-06-19T05:41:35;13.50;;;7.10;;
17987;SDS011;9119;50.932;5.342;2023-06-19T05:44:01;16.93;;;7.20;;
17987;SDS011;9119;50.932;5.342;2023-06-19T05:46:27;12.90;;;6.87;;
17987;SDS011;9119;50.932;5.342;2023-06-19T05:48:53;20.27;;;7.13;;
17987;SDS011;9119;50.932;5.342;2023-06-19T05:51:19;12.00;;;6.60;;
17987;SDS011;9119;50.932;5.342;2023-06-19T05:53:45;9.57;;;6.30;;
17987;SDS011;9119;50.932;5.342;2023-06-19T05:56:11;8.83;;;5.80;;
17987;SDS011;9119;50.932;5.342;2023-06-19T05:58:37;11.27;;;5.07;;
17987;SDS011;9119;50.932;5.342;2023-06-19T06:01:04;8.60;;;5.50;;
17987;SDS011;9119;50.932;5.342;2023-06-19T06:03:30;11.10;;;4.90;;
17987;SDS011;9119;50.932;5.342;2023-06-19T06:05:56;8.00;;;4.83;;
17987;SDS011;9119;50.932;5.342;2023-06-19T06:08:28;7.87;;;5.07;;
17987;SDS011;9119;50.932;5.342;2023-06-19T06:10:54;6.40;;;4.03;;
17987;SDS011;9119;50.932;5.342;2023-06-19T06:13:20;13.20;;;4.13;;
17987;SDS011;9119;50.932;5.342;2023-06-19T06:15:45;8.10;;;5.17;;
17987;SDS011;9119;50.932;5.342;2023-06-19T06:18:11;9.23;;;5.23;;
17987;SDS011;9119;50.932;5.342;2023-06-19T06:20:37;13.57;;;5.30;;
17987;SDS011;9119;50.932;5.342;2023-06-19T06:23:02;10.97;;;5.10;;
17987;SDS011;9119;50.932;5.342;2023-06-19T06:25:28;9.27;;;5.20;;
17987;SDS011;9119;50.932;5.342;2023-06-19T06:27:54;11.33;;;5.30;;
17987;SDS011;9119;50.932;5.342;2023-06-19T06:30:20;11.87;;;5.60;;
17987;SDS011;9119;50.932;5.342;2023-06-19T06:32:46;10.03;;;5.57;;
17987;SDS011;9119;50.932;5.342;2023-06-19T06:35:12;10.00;;;5.73;;
17987;SDS011;9119;50.932;5.342;2023-06-19T06:37:38;10.70;;;6.17;;
17987;SDS011;9119;50.932;5.342;2023-06-19T06:40:05;9.43;;;5.83;;
17987;SDS011;9119;50.932;5.342;2023-06-19T06:42:36;8.63;;;5.67;;
17987;SDS011;9119;50.932;5.342;2023-06-19T06:45:02;10.03;;;5.97;;
17987;SDS011;9119;50.932;5.342;2023-06-19T06:47:29;42.80;;;10.73;;
17987;SDS011;9119;50.932;5.342;2023-06-19T06:49:54;12.53;;;6.33;;
17987;SDS011;9119;50.932;5.342;2023-06-19T06:52:20;10.47;;;6.07;;
17987;SDS011;9119;50.932;5.342;2023-06-19T06:54:46;12.03;;;6.27;;
17987;SDS011;9119;50.932;5.342;2023-06-19T06:57:11;11.83;;;6.57;;
17987;SDS011;9119;50.932;5.342;2023-06-19T06:59:37;10.90;;;6.87;;
17987;SDS011;9119;50.932;5.342;2023-06-19T07:02:03;15.53;;;7.27;;
17987;SDS011;9119;50.932;5.342;2023-06-19T07:04:28;11.77;;;6.40;;
17987;SDS011;9119;50.932;5.342;2023-06-19T07:06:54;12.67;;;6.50;;
17987;SDS011;9119;50.932;5.342;2023-06-19T07:09:20;9.33;;;6.20;;
17987;SDS011;9119;50.932;5.342;2023-06-19T07:11:48;12.07;;;6.87;;
17987;SDS011;9119;50.932;5.342;2023-06-19T07:14:14;10.73;;;6.93;;
17987;SDS011;9119;50.932;5.342;2023-06-19T07:16:43;17.93;;;6.87;;
17987;SDS011;9119;50.932;5.342;2023-06-19T07:19:10;10.07;;;6.33;;
17987;SDS011;9119;50.932;5.342;2023-06-19T07:21:36;10.80;;;6.70;;
17987;SDS011;9119;50.932;5.342;2023-06-19T07:24:03;12.40;;;6.47;;
17987;SDS011;9119;50.932;5.342;2023-06-19T07:26:29;12.20;;;6.93;;
17987;SDS011;9119;50.932;5.342;2023-06-19T07:28:55;16.53;;;6.77;;
17987;SDS011;9119;50.932;5.342;2023-06-19T07:31:21;13.90;;;6.87;;
17987;SDS011;9119;50.932;5.342;2023-06-19T07:33:47;12.97;;;7.27;;
17987;SDS011;9119;50.932;5.342;2023-06-19T07:36:12;12.40;;;6.83;;
17987;SDS011;9119;50.932;5.342;2023-06-19T07:38:42;10.57;;;7.20;;
17987;SDS011;9119;50.932;5.342;2023-06-19T07:41:08;13.80;;;7.40;;
17987;SDS011;9119;50.932;5.342;2023-06-19T07:43:35;14.60;;;6.87;;
17987;SDS011;9119;50.932;5.342;2023-06-19T07:46:01;10.83;;;6.60;;
17987;SDS011;9119;50.932;5.342;2023-06-19T07:48:27;9.97;;;6.43;;
17987;SDS011;9119;50.932;5.342;2023-06-19T07:50:53;10.13;;;6.43;;
17987;SDS011;9119;50.932;5.342;2023-06-19T07:53:19;14.97;;;7.13;;
17987;SDS011;9119;50.932;5.342;2023-06-19T07:55:45;12.03;;;6.37;;
17987;SDS011;9119;50.932;5.342;2023-06-19T07:58:11;11.30;;;6.67;;
17987;SDS011;9119;50.932;5.342;2023-06-19T08:00:36;19.07;;;7.00;;
17987;SDS011;9119;50.932;5.342;2023-06-19T08:03:02;12.23;;;6.80;;
17987;SDS011;9119;50.932;5.342;2023-06-19T08:05:28;12.63;;;6.60;;
17987;SDS011;9119;50.932;5.342;2023-06-19T08:07:55;9.80;;;6.97;;
17987;SDS011;9119;50.932;5.342;2023-06-19T08:10:22;9.07;;;6.23;;
17987;SDS011;9119;50.932;5.342;2023-06-19T08:12:47;10.10;;;7.07;;
17987;SDS011;9119;50.932;5.342;2023-06-19T08:15:13;12.20;;;6.50;;
17987;SDS011;9119;50.932;5.342;2023-06-19T08:17:39;15.17;;;7.10;;
17987;SDS011;9119;50.932;5.342;2023-06-19T08:20:05;13.03;;;6.50;;
17987;SDS011;9119;50.932;5.342;2023-06-19T08:22:32;12.13;;;7.07;;
17987;SDS011;9119;50.932;5.342;2023-06-19T08:24:58;10.50;;;6.50;;
17987;SDS011;9119;50.932;5.342;2023-06-19T08:27:24;15.20;;;5.97;;
17987;SDS011;9119;50.932;5.342;2023-06-19T08:29:49;8.67;;;5.77;;
17987;SDS011;9119;50.932;5.342;2023-06-19T08:32:15;9.80;;;5.63;;
17987;SDS011;9119;50.932;5.342;2023-06-19T08:34:41;10.00;;;6.07;;
17987;SDS011;9119;50.932;5.342;2023-06-19T08:37:07;16.13;;;5.47;;
17987;SDS011;9119;50.932;5.342;2023-06-19T08:39:33;9.53;;;5.77;;
17987;SDS011;9119;50.932;5.342;2023-06-19T08:42:01;10.07;;;5.80;;
17987;SDS011;9119;50.932;5.342;2023-06-19T08:44:27;11.93;;;6.97;;
17987;SDS011;9119;50.932;5.342;2023-06-19T08:46:53;8.60;;;6.10;;
17987;SDS011;9119;50.932;5.342;2023-06-19T08:49:19;11.60;;;5.77;;
17987;SDS011;9119;50.932;5.342;2023-06-19T08:51:45;12.87;;;5.50;;
17987;SDS011;9119;50.932;5.342;2023-06-19T08:54:11;10.13;;;6.10;;
17987;SDS011;9119;50.932;5.342;2023-06-19T08:56:38;11.13;;;5.63;;
17987;SDS011;9119;50.932;5.342;2023-06-19T08:59:08;11.10;;;5.87;;
17987;SDS011;9119;50.932;5.342;2023-06-19T09:01:35;11.33;;;5.07;;
17987;SDS011;9119;50.932;5.342;2023-06-19T09:04:07;9.47;;;5.37;;
17987;SDS011;9119;50.932;5.342;2023-06-19T09:06:45;13.37;;;5.87;;
17987;SDS011;9119;50.932;5.342;2023-06-19T09:09:13;11.53;;;6.77;;
17987;SDS011;9119;50.932;5.342;2023-06-19T09:11:39;9.43;;;5.97;;
17987;SDS011;9119;50.932;5.342;2023-06-19T09:14:08;11.10;;;6.07;;
17987;SDS011;9119;50.932;5.342;2023-06-19T09:16:41;9.60;;;5.43;;
17987;SDS011;9119;50.932;5.342;2023-06-19T09:19:07;16.23;;;5.87;;
17987;SDS011;9119;50.932;5.342;2023-06-19T09:21:35;12.57;;;5.10;;
17987;SDS011;9119;50.932;5.342;2023-06-19T09:24:05;13.17;;;5.43;;
17987;SDS011;9119;50.932;5.342;2023-06-19T09:26:32;13.03;;;5.80;;
17987;SDS011;9119;50.932;5.342;2023-06-19T09:29:08;8.17;;;5.17;;
17987;SDS011;9119;50.932;5.342;2023-06-19T09:31:38;12.63;;;5.03;;
17987;SDS011;9119;50.932;5.342;2023-06-19T09:34:06;8.73;;;4.70;;
17987;SDS011;9119;50.932;5.342;2023-06-19T09:36:32;10.77;;;5.23;;
17987;SDS011;9119;50.932;5.342;2023-06-19T09:38:59;12.50;;;4.80;;
17987;SDS011;9119;50.932;5.342;2023-06-19T09:41:26;9.37;;;5.50;;
17987;SDS011;9119;50.932;5.342;2023-06-19T09:43:58;7.33;;;5.07;;
17987;SDS011;9119;50.932;5.342;2023-06-19T09:46:26;11.18;;;5.00;;
17987;SDS011;9119;50.932;5.342;2023-06-19T09:48:58;10.23;;;4.97;;
17987;SDS011;9119;50.932;5.342;2023-06-19T09:51:37;6.88;;;4.20;;
17987;SDS011;9119;50.932;5.342;2023-06-19T09:54:06;9.25;;;4.75;;
17987;SDS011;9119;50.932;5.342;2023-06-19T09:56:33;10.55;;;5.07;;
17987;SDS011;9119;50.932;5.342;2023-06-19T09:58:59;8.35;;;4.95;;
17987;SDS011;9119;50.932;5.342;2023-06-19T10:01:29;7.28;;;4.82;;
17987;SDS011;9119;50.932;5.342;2023-06-19T10:04:04;9.75;;;5.13;;
17987;SDS011;9119;50.932;5.342;2023-06-19T10:06:30;9.32;;;5.28;;
17987;SDS011;9119;50.932;5.342;2023-06-19T10:09:05;9.65;;;5.45;;
17987;SDS011;9119;50.932;5.342;2023-06-19T10:11:48;9.50;;;5.45;;
17987;SDS011;9119;50.932;5.342;2023-06-19T10:14:16;11.00;;;4.87;;
17987;SDS011;9119;50.932;5.342;2023-06-19T10:16:43;17.67;;;6.18;;
17987;SDS011;9119;50.932;5.342;2023-06-19T10:19:16;10.27;;;5.23;;
17987;SDS011;9119;50.932;5.342;2023-06-19T10:21:46;6.97;;;4.50;;
17987;SDS011;9119;50.932;5.342;2023-06-19T10:24:14;7.93;;;5.03;;
17987;SDS011;9119;50.932;5.342;2023-06-19T10:27:01;11.60;;;5.07;;
17987;SDS011;9119;50.932;5.342;2023-06-19T10:29:40;10.70;;;5.30;;
17987;SDS011;9119;50.932;5.342;2023-06-19T10:32:06;9.87;;;5.23;;
17987;SDS011;9119;50.932;5.342;2023-06-19T10:34:35;12.73;;;5.45;;
17987;SDS011;9119;50.932;5.342;2023-06-19T10:37:01;12.35;;;5.68;;
17987;SDS011;9119;50.932;5.342;2023-06-19T10:39:27;11.95;;;5.18;;
17987;SDS011;9119;50.932;5.342;2023-06-19T10:41:53;10.45;;;6.50;;
17987;SDS011;9119;50.932;5.342;2023-06-19T10:44:19;13.77;;;6.00;;
17987;SDS011;9119;50.932;5.342;2023-06-19T10:46:49;8.63;;;5.32;;
17987;SDS011;9119;50.932;5.342;2023-06-19T10:49:17;12.98;;;5.80;;
17987;SDS011;9119;50.932;5.342;2023-06-19T10:51:43;9.85;;;6.60;;
17987;SDS011;9119;50.932;5.342;2023-06-19T10:54:09;10.15;;;5.78;;
17987;SDS011;9119;50.932;5.342;2023-06-19T10:56:35;14.65;;;5.55;;
17987;SDS011;9119;50.932;5.342;2023-06-19T10:59:02;9.10;;;5.53;;
17987;SDS011;9119;50.932;5.342;2023-06-19T11:01:35;12.88;;;6.07;;
17987;SDS011;9119;50.932;5.342;2023-06-19T11:04:06;9.25;;;5.53;;
17987;SDS011;9119;50.932;5.342;2023-06-19T11:06:32;12.27;;;6.15;;
17987;SDS011;9119;50.932;5.342;2023-06-19T11:08:59;10.73;;;5.88;;
17987;SDS011;9119;50.932;5.342;2023-06-19T11:11:39;11.13;;;5.80;;
17987;SDS011;9119;50.932;5.342;2023-06-19T11:14:07;14.35;;;6.38;;
17987;SDS011;9119;50.932;5.342;2023-06-19T11:16:34;12.88;;;6.13;;
17987;SDS011;9119;50.932;5.342;2023-06-19T11:19:03;12.18;;;5.95;;
17987;SDS011;9119;50.932;5.342;2023-06-19T11:21:29;12.23;;;5.97;;
17987;SDS011;9119;50.932;5.342;2023-06-19T11:24:01;7.93;;;4.95;;
17987;SDS011;9119;50.932;5.342;2023-06-19T11:26:27;9.02;;;5.45;;
17987;SDS011;9119;50.932;5.342;2023-06-19T11:28:53;12.25;;;5.88;;
17987;SDS011;9119;50.932;5.342;2023-06-19T11:31:28;11.52;;;6.10;;
17987;SDS011;9119;50.932;5.342;2023-06-19T11:33:57;10.20;;;6.15;;
17987;SDS011;9119;50.932;5.342;2023-06-19T11:36:24;15.60;;;6.07;;
17987;SDS011;9119;50.932;5.342;2023-06-19T11:38:50;11.80;;;5.97;;
17987;SDS011;9119;50.932;5.342;2023-06-19T11:41:24;12.75;;;6.00;;
17987;SDS011;9119;50.932;5.342;2023-06-19T11:43:57;10.20;;;5.70;;
17987;SDS011;9119;50.932;5.342;2023-06-19T11:46:29;12.93;;;6.90;;
17987;SDS011;9119;50.932;5.342;2023-06-19T11:49:06;13.25;;;6.45;;
17987;SDS011;9119;50.932;5.342;2023-06-19T11:51:39;8.75;;;5.70;;
17987;SDS011;9119;50.932;5.342;2023-06-19T11:54:06;10.02;;;5.70;;
17987;SDS011;9119;50.932;5.342;2023-06-19T11:56:36;12.73;;;5.88;;
17987;SDS011;9119;50.932;5.342;2023-06-19T11:59:03;10.50;;;5.82;;
17987;SDS011;9119;50.932;5.342;2023-06-19T12:01:29;6.93;;;5.18;;
17987;SDS011;9119;50.932;5.342;2023-06-19T12:03:56;9.75;;;5.20;;
17987;SDS011;9119;50.932;5.342;2023-06-19T12:06:22;12.00;;;5.78;;
17987;SDS011;9119;50.932;5.342;2023-06-19T12:08:48;14.95;;;6.03;;
17987;SDS011;9119;50.932;5.342;2023-06-19T12:11:14;12.48;;;5.22;;
17987;SDS011;9119;50.932;5.342;2023-06-19T12:13:40;11.60;;;5.88;;
17987;SDS011;9119;50.932;5.342;2023-06-19T12:16:10;9.45;;;5.80;;
17987;SDS011;9119;50.932;5.342;2023-06-19T12:18:35;10.85;;;5.32;;
17987;SDS011;9119;50.932;5.342;2023-06-19T12:21:02;8.27;;;5.10;;
17987;SDS011;9119;50.932;5.342;2023-06-19T12:23:28;9.25;;;5.25;;
17987;SDS011;9119;50.932;5.342;2023-06-19T12:25:54;10.73;;;6.40;;
17987;SDS011;9119;50.932;5.342;2023-06-19T12:28:19;7.40;;;5.45;;
17987;SDS011;9119;50.932;5.342;2023-06-19T12:30:46;8.13;;;5.70;;
17987;SDS011;9119;50.932;5.342;2023-06-19T12:33:17;8.73;;;5.43;;
17987;SDS011;9119;50.932;5.342;2023-06-19T12:35:43;12.02;;;5.70;;
17987;SDS011;9119;50.932;5.342;2023-06-19T12:38:09;8.80;;;5.50;;
17987;SDS011;9119;50.932;5.342;2023-06-19T12:40:36;12.07;;;6.03;;
17987;SDS011;9119;50.932;5.342;2023-06-19T12:43:02;11.93;;;5.72;;
17987;SDS011;9119;50.932;5.342;2023-06-19T12:45:28;12.20;;;6.18;;
17987;SDS011;9119;50.932;5.342;2023-06-19T12:47:54;10.25;;;4.95;;
17987;SDS011;9119;50.932;5.342;2023-06-19T12:50:20;11.20;;;5.63;;
17987;SDS011;9119;50.932;5.342;2023-06-19T12:52:46;10.98;;;4.85;;
17987;SDS011;9119;50.932;5.342;2023-06-19T12:55:12;9.15;;;5.50;;
17987;SDS011;9119;50.932;5.342;2023-06-19T12:57:37;9.85;;;5.75;;
17987;SDS011;9119;50.932;5.342;2023-06-19T13:00:03;9.25;;;5.90;;
17987;SDS011;9119;50.932;5.342;2023-06-19T13:02:33;10.30;;;5.78;;
17987;SDS011;9119;50.932;5.342;2023-06-19T13:04:59;7.82;;;5.30;;
17987;SDS011;9119;50.932;5.342;2023-06-19T13:07:25;8.07;;;5.25;;
17987;SDS011;9119;50.932;5.342;2023-06-19T13:09:51;12.63;;;5.18;;
17987;SDS011;9119;50.932;5.342;2023-06-19T13:12:17;9.02;;;5.55;;
17987;SDS011;9119;50.932;5.342;2023-06-19T13:14:42;9.05;;;5.28;;
17987;SDS011;9119;50.932;5.342;2023-06-19T13:17:08;11.23;;;5.32;;
17987;SDS011;9119;50.932;5.342;2023-06-19T13:19:34;13.23;;;4.95;;
17987;SDS011;9119;50.932;5.342;2023-06-19T13:21:59;9.82;;;5.38;;
17987;SDS011;9119;50.932;5.342;2023-06-19T13:24:25;8.07;;;5.13;;
17987;SDS011;9119;50.932;5.342;2023-06-19T13:26:52;9.23;;;5.32;;
17987;SDS011;9119;50.932;5.342;2023-06-19T13:29:19;6.85;;;4.55;;
17987;SDS011;9119;50.932;5.342;2023-06-19T13:31:44;8.18;;;4.95;;
17987;SDS011;9119;50.932;5.342;2023-06-19T13:34:11;6.70;;;4.65;;
17987;SDS011;9119;50.932;5.342;2023-06-19T13:36:36;6.15;;;4.47;;
17987;SDS011;9119;50.932;5.342;2023-06-19T13:39:03;7.13;;;4.85;;
17987;SDS011;9119;50.932;5.342;2023-06-19T13:41:29;9.18;;;5.53;;
17987;SDS011;9119;50.932;5.342;2023-06-19T13:43:57;8.15;;;4.63;;
17987;SDS011;9119;50.932;5.342;2023-06-19T13:46:24;9.20;;;5.13;;
17987;SDS011;9119;50.932;5.342;2023-06-19T13:48:50;7.32;;;4.78;;
17987;SDS011;9119;50.932;5.342;2023-06-19T13:51:22;7.05;;;4.72;;
17987;SDS011;9119;50.932;5.342;2023-06-19T13:53:48;7.45;;;4.40;;
17987;SDS011;9119;50.932;5.342;2023-06-19T13:56:15;8.00;;;4.50;;
17987;SDS011;9119;50.932;5.342;2023-06-19T13:58:41;6.50;;;3.88;;
17987;SDS011;9119;50.932;5.342;2023-06-19T14:01:07;9.43;;;3.88;;
17987;SDS011;9119;50.932;5.342;2023-06-19T14:03:33;5.88;;;3.65;;
17987;SDS011;9119;50.932;5.342;2023-06-19T14:06:00;5.32;;;3.53;;
17987;SDS011;9119;50.932;5.342;2023-06-19T14:08:26;7.10;;;3.85;;
17987;SDS011;9119;50.932;5.342;2023-06-19T14:10:51;6.97;;;3.53;;
17987;SDS011;9119;50.932;5.342;2023-06-19T14:13:17;9.68;;;4.22;;
17987;SDS011;9119;50.932;5.342;2023-06-19T14:15:43;6.90;;;4.43;;
17987;SDS011;9119;50.932;5.342;2023-06-19T14:18:09;7.45;;;4.80;;
17987;SDS011;9119;50.932;5.342;2023-06-19T14:20:34;5.72;;;4.18;;
17987;SDS011;9119;50.932;5.342;2023-06-19T14:23:00;5.53;;;4.38;;
17987;SDS011;9119;50.932;5.342;2023-06-19T14:25:26;6.30;;;4.13;;
17987;SDS011;9119;50.932;5.342;2023-06-19T14:27:51;7.22;;;4.10;;
17987;SDS011;9119;50.932;5.342;2023-06-19T14:30:18;7.32;;;4.50;;
17987;SDS011;9119;50.932;5.342;2023-06-19T14:32:43;7.90;;;4.35;;
17987;SDS011;9119;50.932;5.342;2023-06-19T14:35:09;7.57;;;4.80;;
17987;SDS011;9119;50.932;5.342;2023-06-19T14:37:35;10.65;;;4.30;;
17987;SDS011;9119;50.932;5.342;2023-06-19T14:40:01;6.85;;;4.20;;
17987;SDS011;9119;50.932;5.342;2023-06-19T14:42:27;7.65;;;4.05;;
17987;SDS011;9119;50.932;5.342;2023-06-19T14:44:54;12.48;;;3.75;;
17987;SDS011;9119;50.932;5.342;2023-06-19T14:47:19;4.55;;;3.72;;
17987;SDS011;9119;50.932;5.342;2023-06-19T14:49:45;8.65;;;4.70;;
17987;SDS011;9119;50.932;5.342;2023-06-19T14:52:12;18.23;;;4.40;;
17987;SDS011;9119;50.932;5.342;2023-06-19T14:54:38;5.20;;;4.03;;
17987;SDS011;9119;50.932;5.342;2023-06-19T14:57:04;9.43;;;4.38;;